createdAt,value
2022-11-01T00:01:52.355Z,12.69
2022-11-01T00:04:20.231Z,12.62
2022-11-01T00:06:47.259Z,12.66
2022-11-01T00:09:14.394Z,12.80
2022-11-01T00:11:41.448Z,12.74
2022-11-01T00:14:11.706Z,12.85
2022-11-01T00:16:38.555Z,12.90
2022-11-01T00:19:05.646Z,12.89
2022-11-01T00:21:32.513Z,12.91
2022-11-01T00:23:59.425Z,12.76
2022-11-01T00:26:26.541Z,12.68
2022-11-01T00:28:53.882Z,12.45
2022-11-01T00:31:21.578Z,12.51
2022-11-01T00:33:48.894Z,12.59
2022-11-01T00:36:15.847Z,12.63
2022-11-01T00:38:42.985Z,12.34
2022-11-01T00:41:09.848Z,12.20
2022-11-01T00:43:37.151Z,11.61
2022-11-01T00:46:04.819Z,11.40
2022-11-01T00:48:32.140Z,11.66
2022-11-01T00:50:59.071Z,11.45
2022-11-01T00:53:26.043Z,11.55
2022-11-01T00:55:53.037Z,11.35
2022-11-01T00:58:20.334Z,10.81
2022-11-01T01:00:48.160Z,10.71
2022-11-01T01:03:15.133Z,10.69
2022-11-01T01:05:42.172Z,10.58
2022-11-01T01:08:09.212Z,10.53
2022-11-01T01:10:36.650Z,10.71
2022-11-01T01:13:04.431Z,11.00
2022-11-01T01:15:31.816Z,10.91
2022-11-01T01:17:58.966Z,11.09
2022-11-01T01:20:26.045Z,11.15
2022-11-01T01:22:52.935Z,11.29
2022-11-01T01:25:21.058Z,11.27
2022-11-01T01:27:47.980Z,11.09
2022-11-01T01:30:15.201Z,11.02
2022-11-01T01:32:42.452Z,11.12
2022-11-01T01:35:09.967Z,11.00
2022-11-01T01:37:37.272Z,11.23
2022-11-01T01:40:05.908Z,11.37
2022-11-01T01:42:37.436Z,11.61
2022-11-01T01:45:40.941Z,11.64
2022-11-01T01:48:19.430Z,11.06
2022-11-01T01:50:58.607Z,10.77
2022-11-01T01:53:45.591Z,10.65
2022-11-01T01:56:24.440Z,10.70
2022-11-01T01:59:01.546Z,10.47
2022-11-01T02:01:29.273Z,10.32
2022-11-01T02:04:00.268Z,10.16
2022-11-01T02:06:27.910Z,10.16
2022-11-01T02:08:58.079Z,10.00
2022-11-01T02:11:25.238Z,9.93
2022-11-01T02:13:52.287Z,9.90
2022-11-01T02:16:41.001Z,9.85
2022-11-01T02:19:26.365Z,9.78
2022-11-01T02:22:17.441Z,9.77
2022-11-01T02:25:10.224Z,9.67
2022-11-01T02:28:03.646Z,9.73
2022-11-01T02:30:58.189Z,9.68
2022-11-01T02:33:42.948Z,9.67
2022-11-01T02:36:19.406Z,9.58
2022-11-01T02:38:48.856Z,9.49
2022-11-01T02:41:32.950Z,9.54
2022-11-01T02:44:04.935Z,9.47
2022-11-01T02:46:54.243Z,9.47
2022-11-01T02:49:23.677Z,9.50
2022-11-01T02:51:52.897Z,9.51
2022-11-01T02:54:29.144Z,9.49
2022-11-01T02:57:05.294Z,9.52
2022-11-01T02:59:44.026Z,9.54
2022-11-01T03:02:21.130Z,9.51
2022-11-01T03:04:48.696Z,9.42
2022-11-01T03:07:16.893Z,9.37
2022-11-01T03:09:44.702Z,9.25
2022-11-01T03:12:25.750Z,9.12
2022-11-01T03:15:03.211Z,9.08
2022-11-01T03:17:47.960Z,9.09
2022-11-01T03:20:23.216Z,9.03
2022-11-01T03:23:01.926Z,9.00
2022-11-01T03:25:39.822Z,8.95
2022-11-01T03:28:15.611Z,9.01
2022-11-01T03:30:48.316Z,9.03
2022-11-01T03:33:17.042Z,9.02
2022-11-01T03:35:49.094Z,9.08
2022-11-01T03:38:20.326Z,9.07
2022-11-01T03:40:56.651Z,9.07
2022-11-01T03:43:27.026Z,9.09
2022-11-01T03:45:54.989Z,9.16
2022-11-01T03:48:21.973Z,9.16
2022-11-01T03:50:51.045Z,9.13
2022-11-01T03:53:18.144Z,9.24
2022-11-01T03:55:45.011Z,9.30
2022-11-01T03:58:12.039Z,9.33
2022-11-01T04:00:44.251Z,8.95
2022-11-01T04:03:13.036Z,8.87
2022-11-01T04:05:41.629Z,8.85
2022-11-01T04:08:11.385Z,8.78
2022-11-01T04:10:38.821Z,8.73
2022-11-01T04:13:05.993Z,8.68
2022-11-01T04:15:51.575Z,8.67
2022-11-01T04:18:42.129Z,8.71
2022-11-01T04:21:16.269Z,8.71
2022-11-01T04:23:44.545Z,8.75
2022-11-01T04:26:13.652Z,8.77
2022-11-01T04:28:40.834Z,8.83
2022-11-01T04:31:08.213Z,8.90
2022-11-01T04:33:35.053Z,9.05
2022-11-01T04:36:06.531Z,9.16
2022-11-01T04:38:33.417Z,9.23
2022-11-01T04:41:00.309Z,9.22
2022-11-01T04:43:27.245Z,9.11
2022-11-01T04:45:55.535Z,9.03
2022-11-01T04:48:23.045Z,9.01
2022-11-01T04:50:50.098Z,8.97
2022-11-01T04:53:17.186Z,9.09
2022-11-01T04:55:44.099Z,9.28
2022-11-01T04:58:11.422Z,9.31
2022-11-01T05:00:39.036Z,9.49
2022-11-01T05:03:07.833Z,9.60
2022-11-01T05:05:35.357Z,9.78
2022-11-01T05:08:08.163Z,9.83
2022-11-01T05:10:36.844Z,9.80
2022-11-01T05:13:05.861Z,9.72
2022-11-01T05:15:33.727Z,9.77
2022-11-01T05:18:02.094Z,9.80
2022-11-01T05:20:30.801Z,9.92
2022-11-01T05:22:59.995Z,10.02
2022-11-01T05:25:27.906Z,10.08
2022-11-01T05:28:10.801Z,10.19
2022-11-01T05:30:38.490Z,10.32
2022-11-01T05:33:06.507Z,10.46
2022-11-01T05:35:34.943Z,10.55
2022-11-01T05:38:03.835Z,10.57
2022-11-01T05:40:31.237Z,10.61
2022-11-01T05:42:59.038Z,10.68
2022-11-01T05:45:26.201Z,10.76
2022-11-01T05:47:53.194Z,10.86
2022-11-01T05:50:20.172Z,11.02
2022-11-01T05:52:47.063Z,11.17
2022-11-01T05:55:14.029Z,11.39
2022-11-01T05:57:40.919Z,11.51
2022-11-01T06:00:08.509Z,11.61
2022-11-01T06:02:41.310Z,11.75
2022-11-01T06:05:08.959Z,11.85
2022-11-01T06:07:36.653Z,12.03
2022-11-01T06:10:05.074Z,12.26
2022-11-01T06:12:32.257Z,12.54
2022-11-01T06:14:59.191Z,12.79
2022-11-01T06:17:26.107Z,13.04
2022-11-01T06:19:53.047Z,13.18
2022-11-01T06:22:19.909Z,13.36
2022-11-01T06:24:46.819Z,13.49
2022-11-01T06:27:13.855Z,13.68
2022-11-01T06:29:40.727Z,13.77
2022-11-01T06:32:07.634Z,13.91
2022-11-01T06:34:34.575Z,14.14
2022-11-01T06:37:02.224Z,14.27
2022-11-01T06:39:29.212Z,14.37
2022-11-01T06:41:56.099Z,14.43
2022-11-01T06:44:23.102Z,14.55
2022-11-01T06:46:50.036Z,14.71
2022-11-01T06:49:19.097Z,14.85
2022-11-01T06:51:46.493Z,14.85
2022-11-01T06:54:13.750Z,15.09
2022-11-01T06:56:40.665Z,15.23
2022-11-01T06:59:08.463Z,15.46
2022-11-01T07:01:35.865Z,15.58
2022-11-01T07:04:02.953Z,15.75
2022-11-01T07:06:31.161Z,15.89
2022-11-01T07:09:01.646Z,16.06
2022-11-01T07:11:31.431Z,16.29
2022-11-01T07:13:59.570Z,16.73
2022-11-01T07:16:27.470Z,17.04
2022-11-01T07:18:54.757Z,17.10
2022-11-01T07:21:21.702Z,17.10
2022-11-01T07:23:48.677Z,17.15
2022-11-01T07:26:15.608Z,17.30
2022-11-01T07:28:42.656Z,17.46
2022-11-01T07:31:09.577Z,17.52
2022-11-01T07:33:36.465Z,17.48
2022-11-01T07:36:04.710Z,17.90
2022-11-01T07:38:31.779Z,18.06
2022-11-01T07:40:58.723Z,18.04
2022-11-01T07:43:25.617Z,17.98
2022-11-01T07:45:52.533Z,18.01
2022-11-01T07:48:19.902Z,18.41
2022-11-01T07:50:46.881Z,18.26
2022-11-01T07:53:16.888Z,18.51
2022-11-01T07:55:44.651Z,18.49
2022-11-01T07:58:12.436Z,18.55
2022-11-01T08:00:40.425Z,18.58
2022-11-01T08:03:09.562Z,18.30
2022-11-01T08:05:37.229Z,18.84
2022-11-01T08:08:05.875Z,18.91
2022-11-01T08:10:34.466Z,18.91
2022-11-01T08:13:27.898Z,18.61
2022-11-01T08:15:55.227Z,18.94
2022-11-01T08:18:24.429Z,19.05
2022-11-01T08:20:51.718Z,18.72
2022-11-01T08:23:18.874Z,18.90
2022-11-01T08:25:46.060Z,18.89
2022-11-01T08:28:18.245Z,18.72
2022-11-01T08:30:48.169Z,18.94
2022-11-01T08:33:15.315Z,19.01
2022-11-01T08:35:49.722Z,19.17
2022-11-01T08:38:17.605Z,19.21
2022-11-01T08:40:44.460Z,18.94
2022-11-01T08:43:11.336Z,18.93
2022-11-01T08:45:38.383Z,19.40
2022-11-01T08:48:05.895Z,19.57
2022-11-01T08:50:35.043Z,19.82
2022-11-01T08:53:07.841Z,19.98
2022-11-01T08:55:37.893Z,20.09
2022-11-01T08:58:06.529Z,20.11
2022-11-01T09:00:34.109Z,20.29
2022-11-01T09:03:01.260Z,20.07
2022-11-01T09:05:31.330Z,20.18
2022-11-01T09:08:00.213Z,20.25
2022-11-01T09:10:28.608Z,20.17
2022-11-01T09:12:55.513Z,20.02
2022-11-01T09:15:22.412Z,19.83
2022-11-01T09:17:49.329Z,20.22
2022-11-01T09:20:16.485Z,19.95
2022-11-01T09:22:43.396Z,19.92
2022-11-01T09:25:11.236Z,20.28
2022-11-01T09:27:38.259Z,20.38
2022-11-01T09:30:06.067Z,20.66
2022-11-01T09:32:33.009Z,20.74
2022-11-01T09:35:00.801Z,20.42
2022-11-01T09:37:27.904Z,20.63
2022-11-01T09:39:54.881Z,20.72
2022-11-01T09:42:32.679Z,20.62
2022-11-01T10:17:53.197Z,19.64
2022-11-01T10:20:27.873Z,19.95
2022-11-01T10:22:55.402Z,19.95
2022-11-01T10:25:23.691Z,20.04
2022-11-01T10:28:02.138Z,20.51
2022-11-01T10:30:36.779Z,20.52
2022-11-01T10:33:15.017Z,20.75
2022-11-01T10:35:44.854Z,20.42
2022-11-01T10:41:34.197Z,20.86
2022-11-01T10:44:05.147Z,20.91
2022-11-01T10:46:38.555Z,20.89
2022-11-01T10:49:14.899Z,21.07
2022-11-01T10:51:42.509Z,20.95
2022-11-01T10:54:19.051Z,21.07
2022-11-01T10:56:49.417Z,20.76
2022-11-01T10:59:29.441Z,20.85
2022-11-01T11:01:57.384Z,20.89
2022-11-01T11:04:25.139Z,21.05
2022-11-01T11:06:52.797Z,20.49
2022-11-01T11:09:34.508Z,20.71
2022-11-01T11:12:09.974Z,20.51
2022-11-01T11:14:37.819Z,20.51
2022-11-01T11:17:18.055Z,20.01
2022-11-01T11:19:47.820Z,19.88
2022-11-01T11:22:15.137Z,20.10
2022-11-01T11:24:44.747Z,20.14
2022-11-01T11:27:26.032Z,19.76
2022-11-01T11:29:56.869Z,19.87
2022-11-01T11:32:28.021Z,19.74
2022-11-01T11:35:17.515Z,19.45
2022-11-01T11:38:07.225Z,19.38
2022-11-01T11:40:43.239Z,18.93
2022-11-01T11:43:19.163Z,19.00
2022-11-01T11:46:24.054Z,19.08
2022-11-01T11:49:04.594Z,19.03
2022-11-01T11:51:37.770Z,19.06
2022-11-01T11:54:32.272Z,19.05
2022-11-01T11:57:25.020Z,18.94
2022-11-01T11:59:57.464Z,18.99
2022-11-01T12:02:28.289Z,18.85
2022-11-01T12:05:09.496Z,18.73
2022-11-01T12:07:46.483Z,18.65
2022-11-01T12:10:37.771Z,18.77
2022-11-01T12:13:25.003Z,18.76
2022-11-01T12:16:10.438Z,18.27
2022-11-01T12:18:50.245Z,18.46
2022-11-01T12:21:20.430Z,18.44
2022-11-01T12:23:52.172Z,18.29
2022-11-01T12:26:22.801Z,18.25
2022-11-01T12:29:04.938Z,18.20
2022-11-01T12:31:32.233Z,17.83
2022-11-01T12:34:10.765Z,17.68
2022-11-01T12:36:59.091Z,17.51
2022-11-01T12:40:02.513Z,17.59
2022-11-01T12:42:48.354Z,17.57
2022-11-01T12:45:28.125Z,17.58
2022-11-01T12:48:01.627Z,17.43
2022-11-01T12:50:47.157Z,17.34
2022-11-01T12:53:20.529Z,17.35
2022-11-01T12:55:47.532Z,17.23
2022-11-01T12:58:18.574Z,17.41
2022-11-01T13:01:09.920Z,17.37
2022-11-01T13:03:58.334Z,17.35
2022-11-01T13:06:56.257Z,17.00
2022-11-01T13:09:41.756Z,16.97
2022-11-01T13:12:29.785Z,16.81
2022-11-01T13:15:03.738Z,16.80
2022-11-01T13:17:42.793Z,16.79
2022-11-01T13:20:38.020Z,16.80
2022-11-01T13:23:22.858Z,16.67
2022-11-01T13:26:02.226Z,16.49
2022-11-01T13:28:31.678Z,16.46
2022-11-01T13:31:03.698Z,16.44
2022-11-01T13:33:38.709Z,16.60
2022-11-01T13:36:13.489Z,16.46
2022-11-01T13:38:40.501Z,16.44
2022-11-01T13:41:22.241Z,16.38
2022-11-01T13:43:54.713Z,16.43
2022-11-01T13:46:40.316Z,16.20
2022-11-01T13:49:10.008Z,16.08
2022-11-01T13:51:40.835Z,16.14
2022-11-01T13:54:38.856Z,15.99
2022-11-01T13:57:11.110Z,15.83
2022-11-01T13:59:38.167Z,15.81
2022-11-01T14:02:23.649Z,15.94
2022-11-01T14:05:02.648Z,15.92
2022-11-01T14:07:37.863Z,15.89
2022-11-01T14:10:33.420Z,16.03
2022-11-01T14:13:15.898Z,16.02
2022-11-01T14:15:54.518Z,16.13
2022-11-01T14:18:21.972Z,15.70
2022-11-01T14:20:56.780Z,15.61
2022-11-01T14:23:29.350Z,15.67
2022-11-01T14:26:21.539Z,15.29
2022-11-01T14:28:50.695Z,15.17
2022-11-01T14:31:22.252Z,15.11
2022-11-01T14:33:49.685Z,14.93
2022-11-01T14:36:21.106Z,15.02
2022-11-01T14:39:00.438Z,15.00
2022-11-01T14:41:32.704Z,15.00
2022-11-01T14:44:06.023Z,14.92
2022-11-01T14:46:39.052Z,14.90
2022-11-01T14:49:40.152Z,14.92
2022-11-01T14:52:11.108Z,14.77
2022-11-01T14:54:53.621Z,14.64
2022-11-01T14:57:28.230Z,14.56
2022-11-01T14:59:56.747Z,14.52
2022-11-01T15:02:25.973Z,14.55
2022-11-01T15:04:59.229Z,14.51
2022-11-01T15:07:32.044Z,14.37
2022-11-01T15:10:11.434Z,14.36
2022-11-01T15:13:00.488Z,14.20
2022-11-01T15:15:38.155Z,14.17
2022-11-01T15:18:13.622Z,14.11
2022-11-01T15:20:43.894Z,14.01
2022-11-01T15:23:15.699Z,13.96
2022-11-01T15:25:44.510Z,13.87
2022-11-01T15:28:23.878Z,13.82
2022-11-01T15:30:57.810Z,13.87
2022-11-01T15:33:32.670Z,13.78
2022-11-01T15:36:08.304Z,13.75
2022-11-01T15:38:51.990Z,13.71
2022-11-01T15:41:26.464Z,13.58
2022-11-01T15:43:58.401Z,13.60
2022-11-01T15:46:30.395Z,13.57
2022-11-01T15:49:01.478Z,13.56
2022-11-01T15:51:30.051Z,13.46
2022-11-01T15:54:02.447Z,13.44
2022-11-01T15:56:41.147Z,13.39
2022-11-01T15:59:19.470Z,13.40
2022-11-01T16:01:48.418Z,13.40
2022-11-01T16:04:19.865Z,13.37
2022-11-01T16:06:52.033Z,13.35
2022-11-01T16:09:33.781Z,13.29
2022-11-01T16:12:03.708Z,13.25
2022-11-01T16:14:38.287Z,13.20
2022-11-01T16:17:07.791Z,13.27
2022-11-01T16:19:51.424Z,13.13
2022-11-01T16:22:33.592Z,13.14
2022-11-01T16:25:22.631Z,13.12
2022-11-01T16:27:56.155Z,13.12
2022-11-01T16:30:47.263Z,13.13
2022-11-01T16:33:20.149Z,13.04
2022-11-01T16:35:54.715Z,13.10
2022-11-01T16:38:36.771Z,13.00
2022-11-01T16:41:29.980Z,13.07
2022-11-01T16:43:59.620Z,13.09
2022-11-01T16:46:29.349Z,13.13
2022-11-01T16:49:01.342Z,13.07
2022-11-01T16:51:30.389Z,13.13
2022-11-01T16:54:00.533Z,13.00
2022-11-01T16:56:38.326Z,13.09
2022-11-01T16:59:33.016Z,13.07
2022-11-01T17:02:03.907Z,12.99
2022-11-01T17:04:31.378Z,12.88
2022-11-01T17:06:58.341Z,12.92
2022-11-01T17:09:35.809Z,12.95
2022-11-01T17:12:03.135Z,12.92
2022-11-01T17:14:30.020Z,12.95
2022-11-01T17:16:57.220Z,12.96
2022-11-01T17:19:31.351Z,12.97
2022-11-01T17:22:01.650Z,12.98
2022-11-01T17:24:30.161Z,12.95
2022-11-01T17:27:00.763Z,12.94
2022-11-01T17:29:29.547Z,12.89
2022-11-01T17:31:56.509Z,12.87
2022-11-01T17:34:24.551Z,12.87
2022-11-01T17:36:51.593Z,12.89
2022-11-01T17:39:19.967Z,12.87
2022-11-01T17:41:47.024Z,12.93
2022-11-01T17:44:13.966Z,12.97
2022-11-01T17:46:41.034Z,12.98
2022-11-01T17:49:11.470Z,12.99
2022-11-01T17:51:38.305Z,12.89
2022-11-01T17:54:05.360Z,12.83
2022-11-01T17:56:32.303Z,12.91
2022-11-01T17:58:59.368Z,12.99
2022-11-01T18:01:26.447Z,12.90
2022-11-01T18:03:53.546Z,12.89
2022-11-01T18:06:20.943Z,12.90
2022-11-01T18:08:50.372Z,12.94
2022-11-01T18:11:38.923Z,12.97
2022-11-01T18:14:32.814Z,13.02
2022-11-01T18:17:31.909Z,12.96
2022-11-01T18:20:19.652Z,12.83
2022-11-01T18:23:03.421Z,12.75
2022-11-01T18:25:32.890Z,12.69
2022-11-01T18:28:02.342Z,12.67
2022-11-01T18:30:30.119Z,12.69
2022-11-01T18:33:05.268Z,12.77
2022-11-01T18:35:41.640Z,12.71
2022-11-01T18:38:26.235Z,12.63
2022-11-01T18:40:57.490Z,12.60
2022-11-01T18:43:27.327Z,12.76
2022-11-01T18:46:23.376Z,12.68
2022-11-01T18:48:42.829Z,12.60
2022-11-01T18:51:19.653Z,12.64
2022-11-01T18:53:47.381Z,12.80
2022-11-01T18:56:23.004Z,12.76
2022-11-01T18:58:55.481Z,12.91
2022-11-01T19:01:32.103Z,12.98
2022-11-01T19:04:11.696Z,12.98
2022-11-01T19:06:38.770Z,12.92
2022-11-01T19:09:27.989Z,12.90
2022-11-01T19:12:10.989Z,12.92
2022-11-01T19:14:39.298Z,12.88
2022-11-01T19:17:17.669Z,12.85
2022-11-01T19:19:44.724Z,12.76
2022-11-01T19:22:28.792Z,12.76
2022-11-01T19:24:55.641Z,12.77
2022-11-01T19:27:23.350Z,12.94
2022-11-01T19:29:56.835Z,12.76
2022-11-01T19:32:26.017Z,12.72
2022-11-01T19:34:55.064Z,12.68
2022-11-01T19:37:31.803Z,12.79
2022-11-01T19:40:01.743Z,12.66
2022-11-01T19:42:31.647Z,12.57
2022-11-01T19:45:20.004Z,12.51
2022-11-01T19:47:50.528Z,12.43
2022-11-01T19:50:23.617Z,12.46
2022-11-01T19:52:52.238Z,12.59
2022-11-01T19:55:34.612Z,12.61
2022-11-01T19:58:02.893Z,12.56
2022-11-01T20:00:29.945Z,12.54
2022-11-01T20:02:59.057Z,12.47
2022-11-01T20:05:30.728Z,12.64
2022-11-01T20:08:22.300Z,12.79
2022-11-01T20:10:49.351Z,12.79
2022-11-01T20:13:16.380Z,12.64
2022-11-01T20:15:43.315Z,12.78
2022-11-01T20:18:11.101Z,12.85
2022-11-01T20:20:43.903Z,12.82
2022-11-01T20:23:25.804Z,12.82
2022-11-01T20:25:53.609Z,12.85
2022-11-01T20:28:20.480Z,12.84
2022-11-01T20:30:47.372Z,12.95
2022-11-01T20:33:14.281Z,12.87
2022-11-01T20:35:41.154Z,12.96
2022-11-01T20:38:08.215Z,12.95
2022-11-01T20:40:35.144Z,12.82
2022-11-01T20:43:02.570Z,12.90
2022-11-01T20:45:29.840Z,12.75
2022-11-01T20:47:57.356Z,12.88
2022-11-01T20:50:24.276Z,12.88
2022-11-01T20:52:51.186Z,12.74
2022-11-01T20:55:18.546Z,12.90
2022-11-01T20:57:45.537Z,12.86
2022-11-01T21:00:13.976Z,12.88
2022-11-01T21:02:41.190Z,12.77
2022-11-01T21:05:27.311Z,12.68
2022-11-01T21:08:24.653Z,12.63
2022-11-01T21:10:58.791Z,12.65
2022-11-01T21:13:30.053Z,12.64
2022-11-01T21:15:58.971Z,12.59
2022-11-01T21:18:32.885Z,12.58
2022-11-01T21:21:19.903Z,12.60
2022-11-01T21:23:47.965Z,12.57
2022-11-01T21:26:24.664Z,12.50
2022-11-01T21:28:55.607Z,12.51
2022-11-01T21:31:31.222Z,12.58
2022-11-01T21:34:16.184Z,12.58
2022-11-01T21:36:50.809Z,12.48
2022-11-01T21:39:25.508Z,12.67
2022-11-01T21:41:55.871Z,12.72
2022-11-01T21:44:49.410Z,12.60
2022-11-01T21:47:16.485Z,12.60
2022-11-01T21:49:43.716Z,12.58
2022-11-01T21:54:43.444Z,12.56
2022-11-01T21:57:11.910Z,12.63
2022-11-01T21:59:39.020Z,12.61
2022-11-01T22:02:07.747Z,12.67
2022-11-01T22:04:34.670Z,12.75
2022-11-01T22:07:03.835Z,12.78
2022-11-01T22:09:32.196Z,12.70
2022-11-01T22:11:59.390Z,12.60
2022-11-01T22:14:26.378Z,12.61
2022-11-01T22:16:53.349Z,12.66
2022-11-01T22:19:21.093Z,12.63
2022-11-01T22:21:47.992Z,12.64
2022-11-01T22:24:14.892Z,12.58
2022-11-01T22:26:41.812Z,12.60
2022-11-01T22:29:08.713Z,12.56
2022-11-01T22:31:35.715Z,12.49
2022-11-01T22:34:02.911Z,12.56
2022-11-01T22:36:31.596Z,12.49
2022-11-01T22:39:00.434Z,12.46
2022-11-01T22:41:31.930Z,12.43
2022-11-01T22:44:06.186Z,12.35
2022-11-01T22:46:44.411Z,12.34
2022-11-01T22:49:31.022Z,12.34
2022-11-01T22:52:02.149Z,12.45
2022-11-01T22:54:38.691Z,12.43
2022-11-01T22:57:08.337Z,12.43
2022-11-01T22:59:39.900Z,12.37
2022-11-01T23:02:29.262Z,12.37
2022-11-01T23:05:24.232Z,12.33
2022-11-01T23:07:54.037Z,12.29
2022-11-01T23:10:28.479Z,12.41
2022-11-01T23:13:17.872Z,12.32
2022-11-01T23:15:45.447Z,12.31
2022-11-01T23:18:23.969Z,12.29
2022-11-01T23:20:59.227Z,12.26
2022-11-01T23:23:26.725Z,12.32
2022-11-01T23:25:55.674Z,12.29
2022-11-01T23:28:24.265Z,12.28
2022-11-01T23:30:51.826Z,12.31
2022-11-01T23:33:21.074Z,12.29
2022-11-01T23:35:56.348Z,12.33
2022-11-01T23:38:38.503Z,12.31
2022-11-01T23:41:05.768Z,12.29
2022-11-01T23:43:41.722Z,12.37
2022-11-01T23:46:12.445Z,12.34
2022-11-01T23:48:43.223Z,12.36
2022-11-01T23:51:16.992Z,12.31
2022-11-01T23:53:45.256Z,12.29
2022-11-01T23:56:14.607Z,12.37
2022-11-01T23:58:41.474Z,12.38
